createdAt,value
2019-05-15T00:00:35.740Z,1.97
2019-05-15T00:03:04.100Z,1.57
2019-05-15T00:05:32.374Z,1.63
2019-05-15T00:08:00.702Z,2.00
2019-05-15T00:10:28.988Z,1.60
2019-05-15T00:12:58.041Z,1.70
2019-05-15T00:15:27.916Z,1.80
2019-05-15T00:17:57.916Z,1.73
2019-05-15T00:20:26.329Z,2.10
2019-05-15T00:22:54.624Z,1.90
2019-05-15T00:25:23.253Z,1.80
2019-05-15T00:27:51.519Z,1.97
2019-05-15T00:30:19.797Z,1.90
2019-05-15T00:32:48.860Z,1.80
2019-05-15T00:35:18.382Z,1.80
2019-05-15T00:37:49.058Z,1.90
2019-05-15T00:40:18.426Z,1.90
2019-05-15T00:42:48.762Z,2.00
2019-05-15T00:45:18.478Z,1.97
2019-05-15T00:47:48.690Z,1.93
2019-05-15T00:50:18.214Z,2.20
2019-05-15T00:52:48.516Z,2.23
2019-05-15T00:55:34.637Z,2.10
2019-05-15T00:58:02.930Z,2.03
2019-05-15T01:00:39.694Z,1.97
2019-05-15T01:03:08.716Z,2.03
2019-05-15T01:05:38.713Z,2.10
2019-05-15T01:08:08.233Z,2.10
2019-05-15T01:10:38.553Z,1.83
2019-05-15T01:13:08.348Z,2.47
2019-05-15T01:15:38.826Z,2.10
2019-05-15T01:18:09.050Z,2.50
2019-05-15T01:20:39.105Z,2.20
2019-05-15T01:23:08.811Z,2.30
2019-05-15T01:25:39.045Z,2.00
2019-05-15T01:28:09.545Z,2.37
2019-05-15T01:30:39.167Z,2.07
2019-05-15T01:33:08.422Z,2.80
2019-05-15T01:35:38.367Z,2.20
2019-05-15T01:38:08.101Z,2.23
2019-05-15T01:40:38.692Z,2.20
2019-05-15T01:43:08.972Z,2.00
2019-05-15T01:45:39.076Z,2.07
2019-05-15T01:48:08.119Z,1.70
2019-05-15T01:50:38.854Z,2.20
2019-05-15T01:53:08.283Z,2.07
2019-05-15T01:55:39.138Z,2.40
2019-05-15T01:58:09.083Z,2.10
2019-05-15T02:00:39.112Z,2.00
2019-05-15T02:03:09.427Z,1.87
2019-05-15T02:05:38.999Z,1.90
2019-05-15T02:08:08.196Z,2.00
2019-05-15T02:10:39.189Z,2.00
2019-05-15T02:13:08.547Z,1.90
2019-05-15T02:15:39.155Z,1.80
2019-05-15T02:18:08.399Z,1.90
2019-05-15T02:20:38.990Z,1.73
2019-05-15T02:23:11.446Z,1.77
2019-05-15T02:25:38.784Z,2.10
2019-05-15T02:28:09.095Z,2.30
2019-05-15T02:30:40.541Z,1.77
2019-05-15T02:33:10.086Z,2.20
2019-05-15T02:35:39.266Z,2.10
2019-05-15T02:38:10.102Z,2.00
2019-05-15T02:40:40.082Z,1.83
2019-05-15T02:43:10.121Z,2.23
2019-05-15T02:45:41.721Z,1.90
2019-05-15T02:48:09.242Z,1.90
2019-05-15T02:50:39.087Z,1.83
2019-05-15T02:53:09.836Z,2.00
2019-05-15T02:55:40.321Z,1.70
2019-05-15T02:58:10.091Z,2.00
2019-05-15T03:00:46.986Z,2.23
2019-05-15T03:03:09.496Z,2.20
2019-05-15T03:05:40.810Z,2.60
2019-05-15T03:08:09.687Z,2.47
2019-05-15T03:10:40.697Z,2.50
2019-05-15T03:13:09.748Z,2.20
2019-05-15T03:15:40.151Z,2.40
2019-05-15T03:18:09.509Z,1.93
2019-05-15T03:20:38.843Z,2.20
2019-05-15T03:23:09.612Z,2.17
2019-05-15T03:25:40.202Z,1.87
2019-05-15T03:28:10.546Z,2.40
2019-05-15T03:31:07.104Z,2.50
2019-05-15T03:33:15.890Z,2.33
2019-05-15T03:35:43.266Z,2.17
2019-05-15T03:38:09.302Z,2.00
2019-05-15T03:40:39.749Z,2.40
2019-05-15T03:43:09.064Z,2.00
2019-05-15T03:45:40.511Z,1.90
2019-05-15T03:48:09.403Z,1.90
2019-05-15T03:50:40.254Z,1.87
2019-05-15T03:53:10.313Z,1.90
2019-05-15T03:55:40.427Z,1.83
2019-05-15T03:58:09.860Z,1.87
2019-05-15T04:00:39.462Z,1.87
2019-05-15T04:03:10.649Z,1.90
2019-05-15T04:05:39.133Z,1.77
2019-05-15T04:08:10.789Z,2.00
2019-05-15T04:10:39.803Z,1.77
2019-05-15T04:13:11.261Z,2.10
2019-05-15T04:15:40.109Z,2.00
2019-05-15T04:18:09.323Z,2.43
2019-05-15T04:20:40.542Z,2.20
2019-05-15T04:23:10.143Z,2.10
2019-05-15T04:25:39.301Z,2.00
2019-05-15T04:28:09.608Z,2.03
2019-05-15T04:30:39.200Z,2.37
2019-05-15T04:33:09.513Z,2.00
2019-05-15T04:35:40.252Z,2.03
2019-05-15T04:38:09.361Z,1.90
2019-05-15T04:40:39.775Z,1.83
2019-05-15T04:43:10.531Z,2.23
2019-05-15T04:45:39.188Z,1.77
2019-05-15T04:48:10.020Z,2.00
2019-05-15T04:50:40.055Z,1.47
2019-05-15T04:53:10.502Z,1.90
2019-05-15T04:55:40.443Z,1.70
2019-05-15T04:58:10.050Z,1.93
2019-05-15T05:00:52.484Z,1.63
2019-05-15T05:03:21.026Z,1.97
2019-05-15T05:05:50.388Z,1.83
2019-05-15T05:08:20.185Z,1.70
2019-05-15T05:10:49.124Z,1.90
2019-05-15T05:13:19.882Z,2.00
2019-05-15T05:15:49.942Z,2.27
2019-05-15T05:18:19.001Z,2.30
2019-05-15T05:20:48.451Z,2.23
2019-05-15T05:23:19.240Z,1.77
2019-05-15T05:25:49.199Z,2.23
2019-05-15T05:28:18.185Z,1.93
2019-05-15T05:30:48.230Z,1.93
2019-05-15T05:33:17.958Z,1.77
2019-05-15T05:35:48.567Z,2.00
2019-05-15T05:38:19.295Z,2.00
2019-05-15T05:40:49.147Z,1.90
2019-05-15T05:43:18.395Z,2.20
2019-05-15T05:45:49.140Z,1.80
2019-05-15T05:48:18.738Z,1.77
2019-05-15T05:50:49.773Z,2.47
2019-05-15T05:53:17.175Z,1.70
2019-05-15T05:55:45.451Z,1.90
2019-05-15T05:58:13.723Z,1.97
2019-05-15T06:00:44.715Z,2.13
2019-05-15T06:03:13.249Z,1.43
2019-05-15T06:05:41.537Z,2.10
2019-05-15T06:08:10.464Z,2.10
2019-05-15T06:10:39.020Z,2.03
2019-05-15T06:13:08.678Z,2.10
2019-05-15T06:15:38.660Z,2.07
2019-05-15T06:18:08.364Z,1.67
2019-05-15T06:20:39.357Z,2.00
2019-05-15T06:23:08.468Z,2.20
2019-05-15T06:25:38.937Z,2.20
2019-05-15T06:28:08.960Z,2.00
2019-05-15T06:30:38.596Z,1.93
2019-05-15T06:33:12.845Z,1.80
2019-05-15T06:35:39.361Z,1.40
2019-05-15T06:38:08.514Z,1.50
2019-05-15T06:40:39.447Z,1.30
2019-05-15T06:43:08.780Z,1.80
2019-05-15T06:45:37.986Z,1.50
2019-05-15T06:48:09.280Z,1.63
2019-05-15T06:50:38.512Z,1.83
2019-05-15T06:53:10.419Z,1.27
2019-05-15T06:55:38.894Z,1.30
2019-05-15T06:58:09.145Z,1.30
2019-05-15T07:00:39.043Z,1.43
2019-05-15T07:03:20.123Z,1.37
2019-05-15T07:05:38.565Z,1.23
2019-05-15T07:08:09.061Z,1.10
2019-05-15T07:10:37.762Z,1.27
2019-05-15T07:13:08.708Z,1.30
2019-05-15T07:15:38.297Z,1.20
2019-05-15T07:18:08.544Z,1.10
2019-05-15T07:20:38.891Z,0.90
2019-05-15T07:23:08.653Z,1.00
2019-05-15T07:25:38.774Z,1.20
2019-05-15T07:28:08.591Z,1.20
2019-05-15T07:30:40.832Z,1.00
2019-05-15T07:33:08.603Z,1.13
2019-05-15T07:35:38.496Z,1.23
2019-05-15T07:38:08.014Z,1.37
2019-05-15T07:40:38.576Z,1.00
2019-05-15T07:43:09.128Z,0.87
2019-05-15T07:45:42.536Z,1.00
2019-05-15T07:48:09.014Z,1.70
2019-05-15T07:50:38.646Z,1.03
2019-05-15T07:53:08.797Z,1.20
2019-05-15T07:55:39.351Z,1.17
2019-05-15T07:58:08.491Z,1.00
2019-05-15T08:00:39.337Z,1.03
2019-05-15T08:03:09.994Z,1.13
2019-05-15T08:05:39.602Z,1.07
2019-05-15T08:08:08.766Z,1.40
2019-05-15T08:10:39.441Z,1.17
2019-05-15T08:13:08.874Z,1.13
2019-05-15T08:15:38.183Z,1.10
2019-05-15T08:18:11.920Z,1.37
2019-05-15T08:20:38.483Z,1.23
2019-05-15T08:23:08.472Z,0.87
2019-05-15T08:25:38.844Z,0.90
2019-05-15T08:28:08.761Z,0.77
2019-05-15T08:30:38.678Z,1.10
2019-05-15T08:33:08.369Z,1.30
2019-05-15T08:35:38.705Z,0.80
2019-05-15T08:38:08.817Z,1.10
2019-05-15T08:40:41.084Z,1.20
2019-05-15T08:43:11.390Z,0.93
2019-05-15T08:45:39.138Z,1.10
2019-05-15T08:48:09.391Z,1.20
2019-05-15T08:50:39.060Z,1.10
2019-05-15T08:53:08.407Z,1.00
2019-05-15T08:55:38.943Z,0.80
2019-05-15T08:58:13.562Z,0.97
2019-05-15T09:00:39.577Z,1.13
2019-05-15T09:03:08.671Z,1.30
2019-05-15T09:05:38.841Z,1.20
2019-05-15T09:08:09.129Z,1.07
2019-05-15T09:10:38.549Z,1.57
2019-05-15T09:13:09.646Z,0.80
2019-05-15T09:15:39.544Z,1.10
2019-05-15T09:18:14.984Z,1.13
2019-05-15T09:20:38.339Z,1.00
2019-05-15T09:23:08.914Z,0.90
2019-05-15T09:25:38.841Z,1.10
2019-05-15T09:28:08.668Z,1.20
2019-05-15T09:30:39.114Z,1.07
2019-05-15T09:33:08.597Z,1.17
2019-05-15T09:35:39.225Z,1.13
2019-05-15T09:38:08.685Z,1.27
2019-05-15T09:40:45.087Z,1.37
2019-05-15T09:43:10.937Z,1.13
2019-05-15T09:45:38.148Z,1.30
2019-05-15T09:48:09.465Z,1.20
2019-05-15T09:50:39.633Z,1.10
2019-05-15T09:53:09.152Z,1.20
2019-05-15T09:55:38.129Z,1.13
2019-05-15T09:58:08.330Z,1.30
2019-05-15T10:00:38.575Z,1.10
2019-05-15T10:03:09.502Z,1.20
2019-05-15T10:05:38.851Z,1.10
2019-05-15T10:08:08.910Z,1.20
2019-05-15T10:10:38.037Z,1.30
2019-05-15T10:13:08.876Z,1.23
2019-05-15T10:15:38.972Z,1.30
2019-05-15T10:18:09.744Z,1.47
2019-05-15T10:20:38.627Z,1.20
2019-05-15T10:23:08.744Z,1.77
2019-05-15T10:25:38.955Z,1.43
2019-05-15T10:28:10.001Z,1.23
2019-05-15T10:30:39.480Z,1.00
2019-05-15T10:33:08.510Z,1.00
2019-05-15T10:35:39.309Z,1.27
2019-05-15T10:38:08.773Z,1.10
2019-05-15T10:40:39.496Z,1.20
2019-05-15T10:43:09.014Z,1.20
2019-05-15T10:45:42.174Z,1.00
2019-05-15T10:48:09.403Z,1.27
2019-05-15T10:50:38.739Z,1.17
2019-05-15T10:53:10.969Z,1.10
2019-05-15T10:55:39.517Z,1.27
2019-05-15T10:58:16.606Z,1.20
2019-05-15T11:00:37.344Z,1.30
2019-05-15T11:03:05.721Z,1.00
2019-05-15T11:05:41.857Z,1.10
2019-05-15T11:08:04.438Z,1.30
2019-05-15T11:10:32.726Z,2.43
2019-05-15T11:13:01.969Z,1.40
2019-05-15T11:15:30.245Z,0.93
2019-05-15T11:17:58.581Z,0.80
2019-05-15T11:20:26.847Z,1.10
2019-05-15T11:22:55.147Z,0.90
2019-05-15T11:25:23.562Z,1.03
2019-05-15T11:27:51.863Z,1.20
2019-05-15T11:30:20.216Z,1.10
2019-05-15T11:32:48.849Z,1.17
2019-05-15T11:35:18.915Z,1.00
2019-05-15T11:37:56.140Z,0.80
2019-05-15T11:40:18.913Z,0.87
2019-05-15T11:42:48.747Z,1.23
2019-05-15T11:45:18.520Z,1.20
2019-05-15T11:47:48.323Z,1.03
2019-05-15T11:50:20.374Z,0.90
2019-05-15T11:52:48.418Z,1.00
2019-05-15T11:55:17.763Z,1.10
2019-05-15T11:57:48.704Z,0.97
2019-05-15T12:00:25.683Z,1.10
2019-05-15T12:02:46.594Z,0.87
2019-05-15T12:05:15.231Z,0.90
2019-05-15T12:07:47.668Z,1.00
2019-05-15T12:10:13.671Z,1.57
2019-05-15T12:12:42.211Z,1.00
2019-05-15T12:15:10.747Z,1.00
2019-05-15T12:17:39.300Z,0.90
2019-05-15T12:20:10.718Z,1.10
2019-05-15T12:22:39.195Z,0.97
2019-05-15T12:25:09.706Z,1.20
2019-05-15T12:30:12.887Z,0.97
2019-05-15T12:32:41.249Z,1.20
2019-05-15T12:35:10.267Z,1.00
2019-05-15T13:00:12.148Z,1.07
2019-05-15T13:02:40.404Z,1.30
2019-05-15T13:05:08.863Z,1.40
2019-05-15T13:07:37.954Z,1.10
2019-05-15T13:10:08.748Z,1.20
2019-05-15T13:12:47.813Z,1.40
2019-05-15T13:15:08.352Z,1.30
2019-05-15T13:17:38.835Z,1.00
2019-05-15T13:20:07.207Z,1.20
2019-05-15T13:22:36.546Z,1.00
2019-05-15T13:25:08.432Z,1.00
2019-05-15T13:27:38.190Z,1.07
2019-05-15T13:30:09.175Z,1.00
2019-05-15T13:32:40.664Z,0.83
2019-05-15T13:35:09.914Z,1.00
2019-05-15T13:37:38.905Z,1.20
2019-05-15T13:40:09.046Z,0.83
2019-05-15T13:42:38.997Z,1.20
2019-05-15T13:45:13.211Z,1.30
2019-05-15T13:47:40.548Z,1.20
2019-05-15T13:50:09.889Z,1.17
2019-05-15T13:52:39.352Z,1.20
2019-05-15T13:55:08.617Z,1.30
2019-05-15T13:57:38.296Z,1.13
2019-05-15T14:00:09.181Z,1.20
2019-05-15T14:02:38.735Z,1.30
2019-05-15T14:05:09.276Z,1.00
2019-05-15T14:07:48.888Z,1.10
2019-05-15T14:10:10.674Z,1.00
2019-05-15T14:12:39.033Z,1.10
2019-05-15T14:15:09.105Z,1.10
2019-05-15T14:17:39.241Z,1.07
2019-05-15T14:20:09.061Z,1.50
2019-05-15T14:22:38.974Z,1.30
2019-05-15T14:25:09.105Z,1.50
2019-05-15T14:27:39.857Z,1.10
2019-05-15T14:30:09.182Z,1.20
2019-05-15T14:32:39.173Z,1.40
2019-05-15T14:35:09.100Z,1.00
2019-05-15T14:37:37.513Z,1.30
2019-05-15T14:40:08.673Z,1.40
2019-05-15T14:42:39.511Z,1.23
2019-05-15T14:45:09.053Z,1.00
2019-05-15T14:47:38.839Z,1.03
2019-05-15T14:50:09.972Z,0.83
2019-05-15T14:52:38.545Z,1.20
2019-05-15T14:55:07.297Z,1.13
2019-05-15T14:57:38.891Z,1.40
2019-05-15T15:00:09.210Z,1.50
2019-05-15T15:02:39.070Z,1.47
2019-05-15T15:05:08.938Z,1.13
2019-05-15T15:07:38.175Z,1.37
2019-05-15T15:10:08.170Z,1.20
2019-05-15T15:12:39.093Z,0.93
2019-05-15T15:15:09.511Z,1.00
2019-05-15T15:17:38.593Z,1.07
2019-05-15T15:20:07.527Z,1.23
2019-05-15T15:22:35.814Z,1.30
2019-05-15T15:25:06.032Z,1.20
2019-05-15T15:27:34.326Z,1.50
2019-05-15T15:30:02.780Z,1.30
2019-05-15T15:32:31.062Z,1.30
2019-05-15T15:34:59.600Z,1.23
2019-05-15T15:37:28.670Z,1.20
2019-05-15T15:39:58.775Z,1.00
2019-05-15T15:42:28.551Z,1.17
2019-05-15T15:44:58.072Z,1.17
2019-05-15T15:47:28.134Z,1.30
2019-05-15T15:49:58.486Z,1.10
2019-05-15T15:52:29.018Z,1.13
2019-05-15T15:54:56.649Z,1.17
2019-05-15T15:57:24.928Z,1.03
2019-05-15T15:59:53.200Z,1.10
2019-05-15T16:02:21.496Z,1.00
2019-05-15T16:04:49.843Z,1.10
2019-05-15T16:07:18.131Z,1.50
2019-05-15T16:09:48.349Z,1.27
2019-05-15T16:12:18.522Z,2.07
2019-05-15T16:14:48.675Z,1.30
2019-05-15T16:17:18.129Z,1.23
2019-05-15T16:20:00.483Z,1.20
2019-05-15T16:22:44.028Z,1.07
2019-05-15T16:25:12.367Z,1.17
2019-05-15T16:27:40.662Z,1.80
2019-05-15T16:30:09.590Z,1.20
2019-05-15T16:33:10.752Z,1.10
2019-05-15T16:35:39.102Z,1.30
2019-05-15T16:38:09.350Z,1.63
2019-05-15T16:40:38.330Z,1.47
2019-05-15T16:43:06.771Z,1.30
2019-05-15T16:45:35.076Z,2.40
2019-05-15T16:48:03.366Z,1.20
2019-05-15T16:50:31.652Z,1.40
2019-05-15T16:52:59.928Z,1.47
2019-05-15T16:55:28.666Z,1.47
2019-05-15T16:57:58.547Z,1.10
2019-05-15T17:00:29.201Z,1.20
2019-05-15T17:03:09.215Z,1.47
2019-05-15T17:05:29.151Z,1.33
2019-05-15T17:07:58.329Z,1.30
2019-05-15T17:10:28.201Z,1.30
2019-05-15T17:12:58.285Z,1.10
2019-05-15T17:15:27.973Z,1.10
2019-05-15T17:17:58.234Z,1.60
2019-05-15T17:20:28.410Z,1.20
2019-05-15T17:22:57.958Z,1.60
2019-05-15T17:25:26.385Z,1.50
2019-05-15T17:27:54.680Z,1.33
2019-05-15T17:30:23.939Z,1.40
2019-05-15T17:32:52.410Z,1.50
2019-05-15T17:35:20.759Z,1.50
2019-05-15T17:37:49.050Z,1.10
2019-05-15T17:40:17.890Z,1.30
2019-05-15T17:42:48.971Z,1.77
2019-05-15T17:45:19.412Z,1.33
2019-05-15T17:47:48.741Z,1.27
2019-05-15T17:50:19.079Z,1.00
2019-05-15T17:52:49.185Z,1.00
2019-05-15T17:55:18.391Z,1.30
2019-05-15T17:57:56.502Z,1.33
2019-05-15T18:00:19.129Z,1.40
2019-05-15T18:02:48.606Z,1.20
2019-05-15T18:05:18.866Z,1.33
2019-05-15T18:07:48.896Z,1.17
2019-05-15T18:10:18.821Z,1.20
2019-05-15T18:12:48.803Z,1.33
2019-05-15T18:15:17.294Z,1.10
2019-05-15T18:17:47.942Z,1.53
2019-05-15T18:20:29.178Z,1.20
2019-05-15T18:22:59.088Z,1.23
2019-05-15T18:25:26.789Z,1.30
2019-05-15T18:27:55.067Z,1.40
2019-05-15T18:30:23.433Z,1.13
2019-05-15T18:32:51.885Z,1.50
2019-05-15T18:35:20.176Z,1.40
2019-05-15T18:37:48.466Z,1.23
2019-05-15T18:40:18.848Z,1.40
2019-05-15T18:42:49.381Z,1.70
2019-05-15T18:45:18.236Z,1.50
2019-05-15T18:47:48.102Z,1.40
2019-05-15T18:50:16.950Z,1.47
2019-05-15T18:52:45.247Z,1.70
2019-05-15T18:55:13.751Z,1.40
2019-05-15T18:57:42.039Z,1.40
2019-05-15T19:00:10.959Z,2.20
2019-05-15T19:02:39.599Z,1.40
2019-05-15T19:05:08.641Z,1.20
2019-05-15T19:07:38.286Z,1.37
2019-05-15T19:10:08.970Z,0.97
2019-05-15T19:12:37.882Z,1.20
2019-05-15T19:15:09.304Z,1.40
2019-05-15T19:17:38.770Z,1.43
2019-05-15T19:20:08.995Z,1.30
2019-05-15T19:22:40.625Z,1.20
2019-05-15T19:25:08.804Z,1.20
2019-05-15T19:27:39.019Z,1.50
2019-05-15T19:30:08.911Z,1.40
2019-05-15T19:32:38.778Z,1.33
2019-05-15T19:35:08.649Z,1.40
2019-05-15T19:37:38.314Z,1.50
2019-05-15T19:40:08.375Z,1.47
2019-05-15T19:42:38.423Z,1.40
2019-05-15T19:45:08.673Z,1.50
2019-05-15T19:47:38.668Z,1.70
2019-05-15T19:50:18.094Z,1.90
2019-05-15T19:52:48.109Z,1.63
2019-05-15T19:55:17.684Z,1.90
2019-05-15T19:57:46.092Z,1.80
2019-05-15T20:00:15.675Z,1.97
2019-05-15T20:02:44.001Z,2.17
2019-05-15T20:05:12.508Z,1.90
2019-05-15T20:07:40.802Z,1.90
2019-05-15T20:10:09.619Z,2.03
2019-05-15T20:12:38.784Z,1.80
2019-05-15T20:15:09.154Z,1.70
2019-05-15T20:17:38.588Z,1.77
2019-05-15T20:20:08.747Z,1.60
2019-05-15T20:22:39.641Z,1.63
2019-05-15T20:25:08.301Z,1.60
2019-05-15T20:27:39.158Z,1.40
2019-05-15T20:30:08.691Z,1.80
2019-05-15T20:32:40.328Z,1.60
2019-05-15T20:35:08.974Z,1.50
2019-05-15T20:37:39.011Z,1.30
2019-05-15T20:40:09.096Z,1.50
2019-05-15T20:42:38.328Z,1.43
2019-05-15T20:45:11.652Z,1.70
2019-05-15T20:47:38.814Z,1.20
2019-05-15T20:50:08.569Z,1.40
2019-05-15T20:52:39.460Z,1.60
2019-05-15T20:55:08.068Z,1.43
2019-05-15T20:57:38.454Z,1.50
2019-05-15T21:00:08.147Z,1.53
2019-05-15T21:02:37.961Z,1.50
2019-05-15T21:05:08.798Z,1.60
2019-05-15T21:07:39.916Z,2.27
2019-05-15T21:10:10.891Z,2.13
2019-05-15T21:12:40.998Z,2.00
2019-05-15T21:15:10.505Z,2.07
2019-05-15T21:17:40.650Z,2.10
2019-05-15T21:20:10.419Z,2.63
2019-05-15T21:22:40.174Z,2.27
2019-05-15T21:25:10.741Z,2.80
2019-05-15T21:27:42.528Z,1.60
2019-05-15T21:30:09.627Z,1.57
2019-05-15T21:32:38.389Z,1.50
2019-05-15T21:35:09.189Z,1.40
2019-05-15T21:37:38.861Z,1.40
2019-05-15T21:40:08.782Z,1.50
2019-05-15T21:42:38.791Z,1.93
2019-05-15T21:45:14.102Z,1.37
2019-05-15T21:47:38.626Z,1.80
2019-05-15T21:50:08.389Z,1.40
2019-05-15T21:52:39.092Z,1.50
2019-05-15T21:55:09.412Z,1.77
2019-05-15T21:57:40.189Z,1.60
2019-05-15T22:00:34.022Z,1.70
2019-05-15T22:03:02.530Z,1.67
2019-05-15T22:05:31.263Z,1.77
2019-05-15T22:07:59.701Z,1.90
2019-05-15T22:10:28.832Z,1.90
2019-05-15T22:12:58.967Z,2.00
2019-05-15T22:15:28.581Z,2.13
2019-05-15T22:17:57.201Z,2.00
2019-05-15T22:20:25.496Z,2.17
2019-05-15T22:22:53.836Z,1.70
2019-05-15T22:25:22.217Z,1.70
2019-05-15T22:27:50.489Z,1.60
2019-05-15T22:30:19.301Z,1.70
2019-05-15T22:32:49.481Z,1.70
2019-05-15T22:35:18.830Z,1.40
2019-05-15T22:37:49.310Z,1.87
2019-05-15T22:40:18.322Z,1.63
2019-05-15T22:42:48.677Z,1.57
2019-05-15T22:45:18.354Z,1.63
2019-05-15T22:47:48.244Z,1.80
2019-05-15T22:50:18.925Z,1.53
2019-05-15T22:52:49.208Z,1.73
2019-05-15T22:55:18.257Z,1.70
2019-05-15T22:57:48.052Z,1.60
2019-05-15T23:00:16.912Z,1.47
2019-05-15T23:02:45.384Z,1.77
2019-05-15T23:05:24.985Z,1.77
2019-05-15T23:07:43.845Z,1.80
2019-05-15T23:10:12.204Z,1.60
2019-05-15T23:12:40.495Z,1.70
2019-05-15T23:15:09.039Z,1.83
2019-05-15T23:17:38.287Z,1.30
2019-05-15T23:20:08.683Z,2.00
2019-05-15T23:22:38.562Z,1.60
2019-05-15T23:25:07.389Z,1.70
2019-05-15T23:27:37.925Z,1.63
2019-05-15T23:30:08.694Z,1.70
2019-05-15T23:32:39.181Z,1.10
2019-05-15T23:35:06.763Z,1.57
2019-05-15T23:37:35.035Z,2.00
2019-05-15T23:40:04.967Z,1.70
2019-05-15T23:42:33.240Z,1.83
2019-05-15T23:45:01.539Z,1.70
2019-05-15T23:47:29.813Z,1.67
2019-05-15T23:49:58.109Z,1.90
2019-05-15T23:52:26.383Z,1.83
2019-05-15T23:54:54.672Z,1.80
2019-05-15T23:57:22.948Z,2.13
2019-05-15T23:59:51.232Z,1.73
